Time;durP1;ratioP1;P1;durP2;ratioP2;P2;SDS_P1;SDS_P2;PMS_P1;PMS_P2;Temp;Humidity;BMP_temperature;BMP_pressure;BME280_temperature;BME280_humidity;BME280_pressure;Samples;Min_cycle;Max_cycle;Signal;HPM_P1;HPM_P2
2022/09/22 00:01:01;;;;;;;7.83;5.10;;;;;;;;;;1715187;82;21035;-68
2022/09/22 00:03:29;;;;;;;6.12;4.60;;;;;;;;;;1720778;82;21637;-68
2022/09/22 00:06:03;;;;;;;6.30;4.37;;;;;;;;;;1718989;83;21040;-68
2022/09/22 00:08:31;;;;;;;6.78;4.65;;;;;;;;;;1714232;83;21052;-68
2022/09/22 00:10:58;;;;;;;7.85;5.37;;;;;;;;;;1714767;82;21071;-68
2022/09/22 00:13:25;;;;;;;6.45;4.70;;;;;;;;;;1716904;82;21040;-68
2022/09/22 00:15:50;;;;;;;9.65;4.75;;;;;;;;;;1716695;82;22061;-68
2022/09/22 00:18:16;;;;;;;7.08;4.65;;;;;;;;;;1714107;82;21012;-68
2022/09/22 00:20:43;;;;;;;7.70;4.95;;;;;;;;;;1725098;82;21072;-68
2022/09/22 00:23:09;;;;;;;8.28;4.45;;;;;;;;;;1715693;82;21052;-68
2022/09/22 00:25:37;;;;;;;7.40;5.47;;;;;;;;;;1716771;82;21531;-68
2022/09/22 00:28:04;;;;;;;9.10;5.00;;;;;;;;;;1716799;82;21559;-68
2022/09/22 00:30:30;;;;;;;9.10;5.17;;;;;;;;;;1719487;83;21040;-67
2022/09/22 00:32:56;;;;;;;6.80;5.03;;;;;;;;;;1722141;82;20993;-67
2022/09/22 00:35:22;;;;;;;7.78;4.85;;;;;;;;;;1724078;82;21480;-66
2022/09/22 00:37:48;;;;;;;7.78;4.95;;;;;;;;;;1721434;82;21079;-67
2022/09/22 00:40:16;;;;;;;8.03;5.03;;;;;;;;;;1719605;83;21028;-68
2022/09/22 00:42:42;;;;;;;6.62;5.30;;;;;;;;;;1723715;82;21496;-68
2022/09/22 00:45:10;;;;;;;8.60;5.35;;;;;;;;;;1722726;82;21143;-68
2022/09/22 00:47:38;;;;;;;8.45;5.55;;;;;;;;;;1718743;83;21481;-68
2022/09/22 00:50:16;;;;;;;10.13;6.10;;;;;;;;;;1716457;82;21539;-68
2022/09/22 00:52:47;;;;;;;11.00;6.50;;;;;;;;;;1720642;82;20967;-67
2022/09/22 00:55:15;;;;;;;10.23;6.65;;;;;;;;;;1725105;82;21064;-66
2022/09/22 00:57:41;;;;;;;11.68;7.42;;;;;;;;;;1715858;82;21054;-69
2022/09/22 01:00:08;;;;;;;10.55;6.67;;;;;;;;;;1720171;82;21132;-68
2022/09/22 01:05:13;;;;;;;8.65;5.87;;;;;;;;;;1682074;84;21650;-68
2022/09/22 01:07:41;;;;;;;10.25;6.28;;;;;;;;;;1689507;84;21020;-69
2022/09/22 01:10:10;;;;;;;8.38;5.50;;;;;;;;;;1730202;82;21587;-68
2022/09/22 01:12:36;;;;;;;7.25;5.67;;;;;;;;;;1733001;82;21013;-68
2022/09/22 01:15:13;;;;;;;9.10;5.70;;;;;;;;;;1727719;82;21058;-68
2022/09/22 01:17:48;;;;;;;8.68;6.10;;;;;;;;;;1727242;82;21078;-67
2022/09/22 01:20:15;;;;;;;8.68;5.97;;;;;;;;;;1729520;82;21086;-67
2022/09/22 01:22:46;;;;;;;8.83;5.58;;;;;;;;;;1698144;83;21080;-68
2022/09/22 01:25:17;;;;;;;11.95;5.85;;;;;;;;;;1724979;82;21130;-68
2022/09/22 01:28:01;;;;;;;8.70;6.30;;;;;;;;;;1728512;82;21086;-67
2022/09/22 01:30:29;;;;;;;9.80;5.75;;;;;;;;;;1731835;82;21086;-67
2022/09/22 01:33:09;;;;;;;6.70;4.92;;;;;;;;;;1677600;82;21025;-67
2022/09/22 01:35:55;;;;;;;7.50;5.03;;;;;;;;;;1728491;82;21011;-68
2022/09/22 01:38:26;;;;;;;9.15;5.70;;;;;;;;;;1728174;82;21044;-69
2022/09/22 01:40:57;;;;;;;8.00;5.15;;;;;;;;;;1725156;82;21098;-69
2022/09/22 01:43:31;;;;;;;8.03;5.85;;;;;;;;;;1730246;82;21078;-69
2022/09/22 01:45:58;;;;;;;7.37;4.90;;;;;;;;;;1711674;82;21055;-68
2022/09/22 01:48:25;;;;;;;8.10;5.00;;;;;;;;;;1722410;82;21009;-69
2022/09/22 01:50:59;;;;;;;8.23;5.42;;;;;;;;;;1700866;82;21060;-68
2022/09/22 01:53:27;;;;;;;6.35;4.35;;;;;;;;;;1727997;82;21017;-68
2022/09/22 01:55:54;;;;;;;6.92;4.95;;;;;;;;;;1729459;82;21068;-68
2022/09/22 01:58:22;;;;;;;6.90;4.90;;;;;;;;;;1730475;82;21027;-69
2022/09/22 02:00:50;;;;;;;6.28;4.30;;;;;;;;;;1728824;82;21062;-69
2022/09/22 02:03:22;;;;;;;7.40;5.00;;;;;;;;;;1727680;82;21137;-68
2022/09/22 02:05:52;;;;;;;6.72;4.40;;;;;;;;;;1723040;82;21039;-69
2022/09/22 02:08:21;;;;;;;7.67;5.00;;;;;;;;;;1724434;82;21128;-67
2022/09/22 02:10:47;;;;;;;6.42;4.60;;;;;;;;;;1731468;82;21500;-69
2022/09/22 02:13:13;;;;;;;7.70;4.15;;;;;;;;;;1719166;82;21104;-68
2022/09/22 02:18:44;;;;;;;7.50;4.80;;;;;;;;;;1697350;83;22141;-68
2022/09/22 02:21:10;;;;;;;6.92;4.25;;;;;;;;;;1684492;84;21166;-68
2022/09/22 02:23:37;;;;;;;6.22;4.53;;;;;;;;;;1653834;86;21595;-68
2022/09/22 02:26:04;;;;;;;6.72;5.30;;;;;;;;;;1661779;85;21023;-68
2022/09/22 02:28:31;;;;;;;5.17;4.08;;;;;;;;;;1666703;86;21056;-68
2022/09/22 02:30:57;;;;;;;4.90;3.50;;;;;;;;;;1689124;84;21005;-68
2022/09/22 02:33:24;;;;;;;5.72;4.20;;;;;;;;;;1686484;83;21504;-67
2022/09/22 02:35:51;;;;;;;5.28;3.95;;;;;;;;;;1686660;84;21055;-68
2022/09/22 02:38:19;;;;;;;7.33;4.45;;;;;;;;;;1695186;84;21528;-68
2022/09/22 02:40:47;;;;;;;8.18;4.55;;;;;;;;;;1685006;84;21066;-68
2022/09/22 02:43:21;;;;;;;5.40;4.20;;;;;;;;;;1681412;85;21105;-69
2022/09/22 02:46:04;;;;;;;7.50;4.37;;;;;;;;;;1729186;82;21563;-68
2022/09/22 02:48:41;;;;;;;6.10;4.25;;;;;;;;;;1740757;82;21068;-68
2022/09/22 02:51:08;;;;;;;5.03;4.15;;;;;;;;;;1740387;82;21058;-68
2022/09/22 02:53:35;;;;;;;7.87;4.28;;;;;;;;;;1730744;82;21012;-69
2022/09/22 02:56:02;;;;;;;5.40;4.00;;;;;;;;;;1739634;82;21050;-68
2022/09/22 02:58:28;;;;;;;6.40;4.42;;;;;;;;;;1731215;82;21052;-68
2022/09/22 03:04:05;;;;;;;5.33;4.12;;;;;;;;;;1865927;75;24717;-69
2022/09/22 03:06:33;;;;;;;5.75;4.20;;;;;;;;;;1838570;75;21031;-69
2022/09/22 03:09:03;;;;;;;6.12;4.05;;;;;;;;;;1846568;77;21056;-68
2022/09/22 03:11:30;;;;;;;5.92;4.37;;;;;;;;;;1819336;77;21050;-67
2022/09/22 03:13:56;;;;;;;5.70;4.40;;;;;;;;;;1850988;75;21016;-68
2022/09/22 03:16:22;;;;;;;6.35;4.00;;;;;;;;;;1841940;77;21097;-68
2022/09/22 03:18:49;;;;;;;5.65;3.98;;;;;;;;;;1844562;77;21036;-68
2022/09/22 03:21:15;;;;;;;6.70;3.83;;;;;;;;;;1852235;77;21629;-66
2022/09/22 03:23:41;;;;;;;5.92;3.85;;;;;;;;;;1860337;77;21116;-67
2022/09/22 03:26:08;;;;;;;4.87;4.03;;;;;;;;;;1850292;77;21013;-69
2022/09/22 03:28:35;;;;;;;7.67;4.22;;;;;;;;;;1847144;77;21557;-68
2022/09/22 03:31:02;;;;;;;5.90;4.08;;;;;;;;;;1849908;77;21003;-68
2022/09/22 03:33:29;;;;;;;6.83;3.80;;;;;;;;;;1841808;76;20994;-69
2022/09/22 03:35:56;;;;;;;5.80;4.00;;;;;;;;;;1838360;77;21011;-69
2022/09/22 03:38:22;;;;;;;7.20;4.30;;;;;;;;;;1844174;77;21430;-69
2022/09/22 03:40:49;;;;;;;5.70;4.12;;;;;;;;;;1846316;77;20995;-69
2022/09/22 03:43:18;;;;;;;5.90;4.00;;;;;;;;;;1843877;77;20987;-69
2022/09/22 03:45:44;;;;;;;5.08;4.17;;;;;;;;;;1842809;77;21080;-69
2022/09/22 03:48:12;;;;;;;6.30;4.30;;;;;;;;;;1845956;77;22278;-69
2022/09/22 03:50:40;;;;;;;6.08;4.20;;;;;;;;;;1846322;77;21078;-69
2022/09/22 03:53:10;;;;;;;7.60;4.87;;;;;;;;;;1843798;77;21011;-69
2022/09/22 03:55:37;;;;;;;6.00;4.47;;;;;;;;;;1844252;77;20955;-69
2022/09/22 03:58:04;;;;;;;6.47;4.60;;;;;;;;;;1846336;77;20967;-69
2022/09/22 04:00:30;;;;;;;5.75;4.53;;;;;;;;;;1844730;77;21309;-69
2022/09/22 04:03:03;;;;;;;6.22;4.60;;;;;;;;;;1840572;77;21115;-69
2022/09/22 04:05:29;;;;;;;6.22;4.30;;;;;;;;;;1849325;77;21045;-69
2022/09/22 04:07:56;;;;;;;8.55;5.10;;;;;;;;;;1841421;77;21023;-69
2022/09/22 04:10:22;;;;;;;8.33;5.67;;;;;;;;;;1850237;77;20964;-69
2022/09/22 04:12:50;;;;;;;11.05;6.58;;;;;;;;;;1847008;77;21089;-69
2022/09/22 04:15:17;;;;;;;10.18;6.15;;;;;;;;;;1842123;77;21113;-70
2022/09/22 04:17:45;;;;;;;9.88;6.22;;;;;;;;;;1838930;77;21364;-69
2022/09/22 04:20:11;;;;;;;7.42;5.58;;;;;;;;;;1829532;77;21554;-69
2022/09/22 04:22:37;;;;;;;8.73;5.85;;;;;;;;;;1835052;77;21011;-69
2022/09/22 04:25:06;;;;;;;10.85;6.87;;;;;;;;;;1839492;77;21573;-69
2022/09/22 04:27:32;;;;;;;13.08;6.40;;;;;;;;;;1847175;77;21876;-69
2022/09/22 04:30:00;;;;;;;7.97;5.92;;;;;;;;;;1844944;77;21030;-70
2022/09/22 04:32:26;;;;;;;9.95;5.65;;;;;;;;;;1835696;77;21093;-69
2022/09/22 04:34:52;;;;;;;9.25;5.08;;;;;;;;;;1841754;77;21514;-69
2022/09/22 04:37:18;;;;;;;8.53;6.10;;;;;;;;;;1841415;77;21007;-69
2022/09/22 04:39:45;;;;;;;8.13;6.10;;;;;;;;;;1839067;77;21601;-67
2022/09/22 04:42:13;;;;;;;8.48;6.03;;;;;;;;;;1843681;77;21070;-68
2022/09/22 04:44:39;;;;;;;9.55;6.60;;;;;;;;;;1842526;77;21549;-69
2022/09/22 04:47:05;;;;;;;8.65;5.30;;;;;;;;;;1846990;77;21490;-69
2022/09/22 04:49:32;;;;;;;8.50;6.08;;;;;;;;;;1838963;77;21050;-68
2022/09/22 04:51:58;;;;;;;9.63;5.78;;;;;;;;;;1850252;77;20999;-69
2022/09/22 04:54:27;;;;;;;10.85;6.58;;;;;;;;;;1841443;77;20975;-68
2022/09/22 04:56:54;;;;;;;8.20;5.90;;;;;;;;;;1843742;77;21160;-69
2022/09/22 04:59:20;;;;;;;9.50;6.47;;;;;;;;;;1842572;77;21112;-69
2022/09/22 05:01:46;;;;;;;10.82;5.90;;;;;;;;;;1843988;77;21494;-69
2022/09/22 05:04:13;;;;;;;10.35;5.83;;;;;;;;;;1770021;80;21071;-69
2022/09/22 05:06:41;;;;;;;7.00;4.87;;;;;;;;;;1770091;80;21040;-69
2022/09/22 05:09:07;;;;;;;8.70;5.83;;;;;;;;;;1766073;80;21027;-69
2022/09/22 05:11:33;;;;;;;8.95;6.28;;;;;;;;;;1770882;80;21483;-69
2022/09/22 05:14:01;;;;;;;7.90;5.20;;;;;;;;;;1773324;80;21032;-69
2022/09/22 05:16:27;;;;;;;10.40;5.92;;;;;;;;;;1768048;80;21507;-68
2022/09/22 05:18:55;;;;;;;9.85;6.20;;;;;;;;;;1763812;80;21058;-69
2022/09/22 05:21:21;;;;;;;7.97;5.62;;;;;;;;;;1763869;80;21062;-68
2022/09/22 05:23:47;;;;;;;9.83;5.75;;;;;;;;;;1765913;80;21074;-68
2022/09/22 05:26:13;;;;;;;8.90;5.60;;;;;;;;;;1746286;80;21079;-68
2022/09/22 05:28:39;;;;;;;10.55;6.08;;;;;;;;;;1783772;80;21063;-69
2022/09/22 05:31:05;;;;;;;7.97;4.83;;;;;;;;;;1774091;80;21259;-70
2022/09/22 05:33:32;;;;;;;6.60;4.58;;;;;;;;;;1772978;80;22202;-70
2022/09/22 05:35:59;;;;;;;11.63;6.33;;;;;;;;;;1778628;80;21064;-69
2022/09/22 05:38:25;;;;;;;8.60;5.28;;;;;;;;;;1776319;80;21036;-69
2022/09/22 05:40:51;;;;;;;10.05;6.05;;;;;;;;;;1761875;80;21110;-69
2022/09/22 05:43:18;;;;;;;7.37;5.03;;;;;;;;;;1765922;80;21539;-69
2022/09/22 05:45:44;;;;;;;8.45;5.95;;;;;;;;;;1765039;80;21028;-69
2022/09/22 05:48:10;;;;;;;8.80;5.62;;;;;;;;;;1765973;80;20984;-69
2022/09/22 05:50:37;;;;;;;11.85;6.87;;;;;;;;;;1764177;80;21508;-68
2022/09/22 05:53:07;;;;;;;10.98;6.58;;;;;;;;;;1772450;80;21008;-70
2022/09/22 05:55:34;;;;;;;10.72;7.15;;;;;;;;;;1767673;80;21000;-68
2022/09/22 05:58:01;;;;;;;11.83;7.70;;;;;;;;;;1761635;80;21021;-69
2022/09/22 06:00:28;;;;;;;10.00;6.87;;;;;;;;;;1763547;80;21568;-69
2022/09/22 06:02:54;;;;;;;11.25;6.22;;;;;;;;;;1767186;80;21158;-69
2022/09/22 06:05:20;;;;;;;11.22;7.25;;;;;;;;;;1762217;80;21009;-69
2022/09/22 06:07:47;;;;;;;12.40;6.87;;;;;;;;;;1765386;80;21048;-69
2022/09/22 06:10:14;;;;;;;9.78;6.50;;;;;;;;;;1769279;80;21122;-70
2022/09/22 06:12:40;;;;;;;11.93;7.28;;;;;;;;;;1771006;80;21035;-68
2022/09/22 06:15:07;;;;;;;10.43;6.78;;;;;;;;;;1764493;80;21585;-69
2022/09/22 06:17:36;;;;;;;11.80;7.15;;;;;;;;;;1775822;80;21139;-70
2022/09/22 06:20:03;;;;;;;12.43;8.10;;;;;;;;;;1760463;80;21058;-70
2022/09/22 06:22:29;;;;;;;13.40;8.75;;;;;;;;;;1763660;80;21820;-69
2022/09/22 06:24:55;;;;;;;11.75;8.03;;;;;;;;;;1763149;80;21580;-69
2022/09/22 06:27:22;;;;;;;13.20;8.05;;;;;;;;;;1761631;80;21051;-70
2022/09/22 06:29:48;;;;;;;12.15;8.43;;;;;;;;;;1765819;80;21570;-68
2022/09/22 06:32:14;;;;;;;15.38;8.83;;;;;;;;;;1771676;79;22231;-69
2022/09/22 06:34:43;;;;;;;14.35;8.70;;;;;;;;;;1764187;80;21253;-69
2022/09/22 06:37:09;;;;;;;11.25;7.22;;;;;;;;;;1771291;80;21091;-70
2022/09/22 06:39:36;;;;;;;11.22;7.28;;;;;;;;;;1766405;80;21075;-69
2022/09/22 06:42:03;;;;;;;13.13;7.65;;;;;;;;;;1767971;80;21551;-69
2022/09/22 06:44:32;;;;;;;11.60;8.15;;;;;;;;;;1765194;80;20988;-69
2022/09/22 06:47:04;;;;;;;11.45;6.97;;;;;;;;;;1770823;80;21558;-68
2022/09/22 06:49:28;;;;;;;15.08;7.80;;;;;;;;;;1771104;80;21124;-69
2022/09/22 06:51:55;;;;;;;9.53;6.53;;;;;;;;;;1767895;80;21035;-70
2022/09/22 06:54:21;;;;;;;9.85;6.87;;;;;;;;;;1768930;80;21008;-69
2022/09/22 06:56:47;;;;;;;8.85;5.97;;;;;;;;;;1770061;80;21063;-69
2022/09/22 06:59:15;;;;;;;10.18;6.40;;;;;;;;;;1764159;80;21194;-69
2022/09/22 07:01:42;;;;;;;8.20;5.47;;;;;;;;;;1763714;80;21052;-69
2022/09/22 07:04:08;;;;;;;7.10;5.35;;;;;;;;;;1768809;80;20989;-69
2022/09/22 07:06:36;;;;;;;8.30;6.08;;;;;;;;;;1767101;80;21079;-69
2022/09/22 07:09:04;;;;;;;8.58;5.75;;;;;;;;;;1770376;80;21149;-69
2022/09/22 07:11:31;;;;;;;7.80;5.62;;;;;;;;;;1773520;80;21071;-68
2022/09/22 07:14:01;;;;;;;7.95;5.50;;;;;;;;;;1768214;80;21028;-69
2022/09/22 07:16:28;;;;;;;7.67;5.45;;;;;;;;;;1761647;80;21516;-69
2022/09/22 07:18:57;;;;;;;8.68;6.03;;;;;;;;;;1765661;80;21035;-70
2022/09/22 07:21:25;;;;;;;8.13;5.83;;;;;;;;;;1765829;80;21099;-69
2022/09/22 07:23:54;;;;;;;8.10;5.60;;;;;;;;;;1770020;80;21587;-69
2022/09/22 07:26:25;;;;;;;7.45;5.17;;;;;;;;;;1771565;80;21559;-69
2022/09/22 07:28:52;;;;;;;9.98;5.30;;;;;;;;;;1765268;80;21040;-70
2022/09/22 07:31:18;;;;;;;7.25;4.83;;;;;;;;;;1766480;80;21012;-70
2022/09/22 07:33:45;;;;;;;8.18;4.90;;;;;;;;;;1764216;80;21440;-69
2022/09/22 07:36:12;;;;;;;7.30;5.00;;;;;;;;;;1763911;80;21079;-69
2022/09/22 07:38:39;;;;;;;6.50;4.65;;;;;;;;;;1771570;80;20996;-69
2022/09/22 07:41:06;;;;;;;6.83;5.28;;;;;;;;;;1767169;80;21150;-69
2022/09/22 07:43:33;;;;;;;6.33;4.50;;;;;;;;;;1770800;80;21043;-70
2022/09/22 07:46:00;;;;;;;5.85;4.50;;;;;;;;;;1770421;80;21071;-69
2022/09/22 07:48:36;;;;;;;5.40;3.90;;;;;;;;;;1763227;80;21044;-69
2022/09/22 07:51:07;;;;;;;4.70;3.67;;;;;;;;;;1766280;80;21079;-69
2022/09/22 07:53:34;;;;;;;5.92;4.00;;;;;;;;;;1768822;80;21083;-69
2022/09/22 07:56:08;;;;;;;7.70;5.15;;;;;;;;;;1768811;80;21020;-68
2022/09/22 07:58:36;;;;;;;7.00;5.22;;;;;;;;;;1763872;80;21094;-69
2022/09/22 08:01:09;;;;;;;10.72;6.10;;;;;;;;;;1767741;80;21048;-69
2022/09/22 08:03:36;;;;;;;10.43;5.70;;;;;;;;;;1767148;80;22187;-70
2022/09/22 08:06:11;;;;;;;6.78;5.30;;;;;;;;;;1766978;80;21055;-69
2022/09/22 08:08:41;;;;;;;6.85;5.20;;;;;;;;;;1767498;80;21028;-69
2022/09/22 08:11:14;;;;;;;9.53;5.20;;;;;;;;;;1760176;80;21020;-68
2022/09/22 08:13:40;;;;;;;7.00;4.83;;;;;;;;;;1765073;80;20992;-68
2022/09/22 08:16:09;;;;;;;8.00;5.37;;;;;;;;;;1772235;80;21677;-69
2022/09/22 08:18:36;;;;;;;7.80;5.65;;;;;;;;;;1774993;80;21028;-69
2022/09/22 08:21:03;;;;;;;10.15;5.00;;;;;;;;;;1767229;80;21024;-69
2022/09/22 08:23:30;;;;;;;8.18;5.30;;;;;;;;;;1773899;80;21052;-69
2022/09/22 08:25:56;;;;;;;8.85;5.33;;;;;;;;;;1763893;80;21270;-69
2022/09/22 08:28:22;;;;;;;7.10;4.75;;;;;;;;;;1764954;80;21103;-70
2022/09/22 08:30:49;;;;;;;8.88;6.00;;;;;;;;;;1773656;80;21134;-68
2022/09/22 08:33:15;;;;;;;6.40;4.53;;;;;;;;;;1772167;80;21450;-69
2022/09/22 08:35:49;;;;;;;8.58;5.17;;;;;;;;;;1761581;80;21520;-69
2022/09/22 08:38:16;;;;;;;7.00;5.03;;;;;;;;;;1765322;80;21017;-69
2022/09/22 08:40:44;;;;;;;7.22;5.40;;;;;;;;;;1753882;80;21027;-70
2022/09/22 08:43:11;;;;;;;6.87;4.90;;;;;;;;;;1766409;80;21059;-70
2022/09/22 08:45:37;;;;;;;8.33;5.42;;;;;;;;;;1769881;80;21024;-69
2022/09/22 08:53:47;;;;;;;7.33;5.00;;;;;;;;;;1771861;80;21059;-69
2022/09/22 08:56:31;;;;;;;64.53;12.05;;;;;;;;;;1756650;80;21333;-69
2022/09/22 08:59:02;;;;;;;18.15;5.78;;;;;;;;;;1779023;80;20977;-69
2022/09/22 09:01:42;;;;;;;7.35;4.80;;;;;;;;;;1763960;80;21016;-69
2022/09/22 09:04:27;;;;;;;9.85;5.67;;;;;;;;;;1762009;80;21546;-69
2022/09/22 09:07:02;;;;;;;8.10;5.25;;;;;;;;;;1768307;80;21107;-69
2022/09/22 09:09:42;;;;;;;9.25;5.45;;;;;;;;;;1768729;80;21062;-69
2022/09/22 09:12:28;;;;;;;6.12;4.50;;;;;;;;;;1768917;80;21071;-69
2022/09/22 09:14:56;;;;;;;5.65;4.45;;;;;;;;;;1768266;80;21119;-69
2022/09/22 09:17:23;;;;;;;4.40;3.40;;;;;;;;;;1768370;80;21505;-68
2022/09/22 09:19:54;;;;;;;5.12;3.52;;;;;;;;;;1765444;80;21028;-69
2022/09/22 09:22:24;;;;;;;7.62;3.67;;;;;;;;;;1768003;80;20996;-69
2022/09/22 09:24:54;;;;;;;4.10;3.50;;;;;;;;;;1763116;80;21040;-70
2022/09/22 09:27:24;;;;;;;6.20;3.62;;;;;;;;;;1764535;80;21052;-70
2022/09/22 09:29:59;;;;;;;43.78;6.72;;;;;;;;;;1774225;80;21455;-70
2022/09/22 09:32:40;;;;;;;9.50;3.60;;;;;;;;;;1767226;80;21521;-69
2022/09/22 09:35:07;;;;;;;15.28;4.50;;;;;;;;;;1769708;80;21008;-69
2022/09/22 09:37:34;;;;;;;5.97;3.80;;;;;;;;;;1765962;80;21039;-70
2022/09/22 09:40:00;;;;;;;8.20;3.80;;;;;;;;;;1769281;80;21012;-70
2022/09/22 09:42:28;;;;;;;6.67;3.62;;;;;;;;;;1763971;80;21066;-70
2022/09/22 09:45:01;;;;;;;4.50;3.15;;;;;;;;;;1767361;80;21035;-69
2022/09/22 09:47:42;;;;;;;7.03;3.70;;;;;;;;;;1769092;80;21602;-69
2022/09/22 09:50:13;;;;;;;7.00;3.17;;;;;;;;;;1761161;80;21032;-69
2022/09/22 09:52:41;;;;;;;16.07;4.87;;;;;;;;;;1766971;80;21142;-69
2022/09/22 09:55:12;;;;;;;4.58;2.60;;;;;;;;;;1766009;80;21091;-69
2022/09/22 09:57:40;;;;;;;4.62;3.50;;;;;;;;;;1767767;80;21056;-69
2022/09/22 10:00:32;;;;;;;4.00;2.60;;;;;;;;;;1764854;80;21204;-69
2022/09/22 10:03:13;;;;;;;3.37;2.77;;;;;;;;;;1766094;80;21087;-70
2022/09/22 10:05:42;;;;;;;51.83;7.40;;;;;;;;;;1764771;80;21074;-70
2022/09/22 10:08:14;;;;;;;16.73;4.47;;;;;;;;;;1764672;79;21027;-71
2022/09/22 10:10:41;;;;;;;17.87;4.12;;;;;;;;;;1765928;80;21037;-69
2022/09/22 10:13:09;;;;;;;5.55;3.60;;;;;;;;;;1765892;80;21056;-67
2022/09/22 10:15:36;;;;;;;5.22;3.20;;;;;;;;;;1772390;80;21151;-66
2022/09/22 10:18:05;;;;;;;4.53;3.02;;;;;;;;;;1772134;80;21064;-69
2022/09/22 10:20:32;;;;;;;4.35;3.40;;;;;;;;;;1766752;80;21048;-70
2022/09/22 10:23:19;;;;;;;4.92;3.20;;;;;;;;;;1766300;80;21023;-70
2022/09/22 10:25:45;;;;;;;6.15;3.22;;;;;;;;;;1762335;80;21012;-69
2022/09/22 10:28:12;;;;;;;343.82;32.70;;;;;;;;;;1766716;80;21530;-69
2022/09/22 10:30:39;;;;;;;44.08;7.10;;;;;;;;;;1745288;80;21060;-70
2022/09/22 10:33:07;;;;;;;23.73;6.70;;;;;;;;;;1740615;81;21064;-69
2022/09/22 10:35:36;;;;;;;7.67;3.52;;;;;;;;;;1736506;80;21035;-70
2022/09/22 10:38:13;;;;;;;23.35;5.67;;;;;;;;;;1737340;80;21048;-69
2022/09/22 10:40:41;;;;;;;328.52;33.18;;;;;;;;;;1739458;81;21055;-70
2022/09/22 10:43:24;;;;;;;34.53;6.72;;;;;;;;;;1743274;81;21052;-69
2022/09/22 10:45:52;;;;;;;13.10;4.07;;;;;;;;;;1741961;81;21050;-71
2022/09/22 10:48:37;;;;;;;6.75;4.20;;;;;;;;;;1720779;81;21548;-68
2022/09/22 10:51:22;;;;;;;9.38;3.75;;;;;;;;;;1743369;80;21571;-68
2022/09/22 10:54:08;;;;;;;5.47;3.25;;;;;;;;;;1746597;80;21012;-68
2022/09/22 10:56:38;;;;;;;3.87;2.85;;;;;;;;;;1744326;80;21506;-70
2022/09/22 10:59:22;;;;;;;4.62;2.92;;;;;;;;;;1739141;81;21070;-68
2022/09/22 11:02:05;;;;;;;4.47;2.58;;;;;;;;;;1738217;80;21082;-68
2022/09/22 11:04:32;;;;;;;;;;;;;;;;;;1742564;81;21054;-69
2022/09/22 11:12:55;;;;;;;3.85;3.00;;;;;;;;;;1687839;84;21047;-69
2022/09/22 11:15:32;;;;;;;4.53;2.90;;;;;;;;;;1684806;84;21119;-69
2022/09/22 11:18:03;;;;;;;4.60;3.15;;;;;;;;;;1708229;80;21025;-69
2022/09/22 11:20:36;;;;;;;3.92;2.90;;;;;;;;;;1738622;80;21555;-69
2022/09/22 11:23:21;;;;;;;4.80;3.30;;;;;;;;;;1734123;81;21066;-69
2022/09/22 11:26:07;;;;;;;4.78;2.98;;;;;;;;;;1748465;81;21613;-69
2022/09/22 11:28:42;;;;;;;4.75;2.70;;;;;;;;;;1747065;80;21570;-69
2022/09/22 11:31:18;;;;;;;4.50;2.42;;;;;;;;;;1732354;81;21067;-69
2022/09/22 11:34:03;;;;;;;3.02;2.30;;;;;;;;;;1741048;81;21140;-68
2022/09/22 11:36:34;;;;;;;4.47;2.02;;;;;;;;;;1737034;81;21544;-69
2022/09/22 11:39:08;;;;;;;2.42;2.12;;;;;;;;;;1743815;80;21064;-70
2022/09/22 11:41:46;;;;;;;3.08;2.30;;;;;;;;;;1739255;81;21034;-69
2022/09/22 11:44:32;;;;;;;3.22;2.35;;;;;;;;;;1719065;80;21024;-69
2022/09/22 11:47:03;;;;;;;4.05;2.42;;;;;;;;;;1742484;81;21044;-69
2022/09/22 11:49:48;;;;;;;3.75;2.60;;;;;;;;;;1741187;81;21054;-69
2022/09/22 11:52:19;;;;;;;3.95;2.45;;;;;;;;;;1769318;80;21117;-70
2022/09/22 11:55:04;;;;;;;3.20;2.30;;;;;;;;;;1764625;80;21066;-69
2022/09/22 11:57:32;;;;;;;3.05;2.15;;;;;;;;;;1743990;81;21054;-69
2022/09/22 12:00:01;;;;;;;3.35;2.60;;;;;;;;;;1735887;81;21510;-70
2022/09/22 12:02:45;;;;;;;4.42;2.72;;;;;;;;;;1733041;81;21035;-69
2022/09/22 12:05:31;;;;;;;4.00;2.60;;;;;;;;;;1725540;82;21084;-69
2022/09/22 12:08:06;;;;;;;2.83;2.27;;;;;;;;;;1750313;80;21032;-69
2022/09/22 12:10:37;;;;;;;3.30;2.17;;;;;;;;;;1729520;81;21034;-68
2022/09/22 12:13:04;;;;;;;3.33;2.35;;;;;;;;;;1747225;80;21017;-69
2022/09/22 12:15:38;;;;;;;3.15;2.22;;;;;;;;;;1740709;81;21578;-69
2022/09/22 12:18:15;;;;;;;3.10;2.30;;;;;;;;;;1747744;80;21067;-69
2022/09/22 12:20:43;;;;;;;3.02;2.37;;;;;;;;;;1742733;80;21098;-68
2022/09/22 12:23:14;;;;;;;4.15;2.60;;;;;;;;;;1726481;80;21614;-69
2022/09/22 12:25:53;;;;;;;3.47;2.52;;;;;;;;;;1735403;81;21040;-70
2022/09/22 12:28:23;;;;;;;3.37;2.02;;;;;;;;;;1737166;81;20948;-69
2022/09/22 12:31:03;;;;;;;3.30;2.47;;;;;;;;;;1738809;81;21549;-69
2022/09/22 12:33:31;;;;;;;3.08;2.17;;;;;;;;;;1738154;81;21514;-69
2022/09/22 12:35:57;;;;;;;2.98;2.30;;;;;;;;;;1736674;81;21275;-68
2022/09/22 12:38:24;;;;;;;2.87;2.25;;;;;;;;;;1743726;80;21536;-70
2022/09/22 12:40:52;;;;;;;2.35;2.15;;;;;;;;;;1743486;80;21100;-68
2022/09/22 12:43:21;;;;;;;2.60;2.30;;;;;;;;;;1731827;80;20996;-68
2022/09/22 12:45:47;;;;;;;3.30;2.20;;;;;;;;;;1738593;80;21536;-68
2022/09/22 12:48:18;;;;;;;3.22;2.40;;;;;;;;;;1740733;80;21517;-68
2022/09/22 12:50:45;;;;;;;3.42;2.60;;;;;;;;;;1733823;80;21062;-68
2022/09/22 12:53:22;;;;;;;4.10;2.47;;;;;;;;;;1731590;80;21080;-68
2022/09/22 12:55:52;;;;;;;3.12;2.40;;;;;;;;;;1740264;80;20974;-69
2022/09/22 12:58:23;;;;;;;3.52;2.58;;;;;;;;;;1735784;80;21055;-69
2022/09/22 13:00:55;;;;;;;3.30;2.40;;;;;;;;;;1735016;81;20978;-67
2022/09/22 13:03:29;;;;;;;3.52;2.60;;;;;;;;;;1735471;81;21115;-68
2022/09/22 13:05:57;;;;;;;4.00;2.80;;;;;;;;;;1727986;81;21039;-69
2022/09/22 13:08:24;;;;;;;3.87;2.60;;;;;;;;;;1734180;81;21548;-67
2022/09/22 13:10:52;;;;;;;4.05;2.67;;;;;;;;;;1739991;81;21009;-68
2022/09/22 13:13:32;;;;;;;3.42;2.50;;;;;;;;;;1737573;81;21007;-70
2022/09/22 13:15:59;;;;;;;4.17;2.33;;;;;;;;;;1738524;80;21075;-68
2022/09/22 13:18:33;;;;;;;3.08;2.25;;;;;;;;;;1740764;80;21127;-68
2022/09/22 13:21:13;;;;;;;4.30;2.35;;;;;;;;;;1746981;81;21044;-68
2022/09/22 13:23:50;;;;;;;3.90;2.40;;;;;;;;;;1731154;81;21059;-68
2022/09/22 13:26:19;;;;;;;3.77;2.30;;;;;;;;;;1747721;80;21155;-69
2022/09/22 13:28:48;;;;;;;5.15;2.70;;;;;;;;;;1745601;80;21113;-69
2022/09/22 13:31:15;;;;;;;4.10;2.60;;;;;;;;;;1731453;81;21602;-68
2022/09/22 13:33:42;;;;;;;3.33;2.60;;;;;;;;;;1741601;80;21051;-69
2022/09/22 13:36:13;;;;;;;2.77;2.08;;;;;;;;;;1740255;80;20993;-69
2022/09/22 13:38:41;;;;;;;2.98;2.27;;;;;;;;;;1743340;81;21020;-68
2022/09/22 13:41:15;;;;;;;2.12;1.90;;;;;;;;;;1733400;81;21037;-69
2022/09/22 13:43:42;;;;;;;3.12;2.00;;;;;;;;;;1736398;81;21081;-69
2022/09/22 13:46:10;;;;;;;2.17;1.85;;;;;;;;;;1736836;80;21022;-68
2022/09/22 13:48:36;;;;;;;3.02;2.20;;;;;;;;;;1745412;80;21064;-68
2022/09/22 13:51:04;;;;;;;2.45;2.00;;;;;;;;;;1747356;80;21127;-69
2022/09/22 13:53:33;;;;;;;3.37;2.40;;;;;;;;;;1740722;80;21059;-67
2022/09/22 13:56:00;;;;;;;2.80;2.20;;;;;;;;;;1740467;80;21014;-68
2022/09/22 13:58:29;;;;;;;2.75;2.20;;;;;;;;;;1729924;80;21546;-69
2022/09/22 14:00:58;;;;;;;3.30;2.30;;;;;;;;;;1731785;81;21117;-68
2022/09/22 14:03:25;;;;;;;3.50;2.17;;;;;;;;;;1744147;80;21060;-69
2022/09/22 14:05:51;;;;;;;3.10;1.98;;;;;;;;;;1738075;80;21063;-68
2022/09/22 14:08:19;;;;;;;2.83;2.20;;;;;;;;;;1735738;80;21562;-68
2022/09/22 14:10:49;;;;;;;3.42;2.30;;;;;;;;;;1730973;80;21091;-69
2022/09/22 14:13:35;;;;;;;3.60;2.08;;;;;;;;;;1739862;80;21058;-68
2022/09/22 14:16:07;;;;;;;3.87;2.30;;;;;;;;;;1732674;80;21023;-68
2022/09/22 14:18:33;;;;;;;2.60;1.92;;;;;;;;;;1773449;80;21039;-69
2022/09/22 14:21:01;;;;;;;2.55;2.05;;;;;;;;;;1717466;81;21078;-69
2022/09/22 14:23:29;;;;;;;2.05;1.72;;;;;;;;;;1725479;80;20964;-68
2022/09/22 14:25:56;;;;;;;4.37;2.25;;;;;;;;;;1742517;80;21087;-69
2022/09/22 14:28:24;;;;;;;3.20;2.22;;;;;;;;;;1751321;80;21103;-69
2022/09/22 14:30:53;;;;;;;3.17;2.35;;;;;;;;;;1736603;81;21033;-68
2022/09/22 14:33:21;;;;;;;4.10;2.22;;;;;;;;;;1734059;81;21056;-68
2022/09/22 14:35:48;;;;;;;4.35;2.40;;;;;;;;;;1731865;81;21031;-68
2022/09/22 14:38:19;;;;;;;4.30;2.60;;;;;;;;;;1748589;80;21080;-68
2022/09/22 14:40:51;;;;;;;3.50;2.37;;;;;;;;;;1737850;80;21046;-68
2022/09/22 14:43:26;;;;;;;3.65;2.40;;;;;;;;;;1740350;80;21058;-67
2022/09/22 14:45:59;;;;;;;3.80;2.50;;;;;;;;;;1728727;81;20975;-68
2022/09/22 14:48:37;;;;;;;4.40;3.00;;;;;;;;;;1745272;80;21302;-67
2022/09/22 14:51:07;;;;;;;3.75;2.40;;;;;;;;;;1770891;80;20984;-68
2022/09/22 14:53:34;;;;;;;4.03;2.60;;;;;;;;;;1746537;81;21073;-68
2022/09/22 14:56:03;;;;;;;4.33;2.98;;;;;;;;;;1742171;81;21610;-68
2022/09/22 14:58:32;;;;;;;3.12;2.67;;;;;;;;;;1745619;80;21046;-68
2022/09/22 15:03:54;;;;;;;4.80;2.85;;;;;;;;;;1766402;80;21087;-68
2022/09/22 15:06:21;;;;;;;4.35;3.10;;;;;;;;;;1766438;80;21087;-69
2022/09/22 15:08:48;;;;;;;4.53;3.10;;;;;;;;;;1757882;80;21083;-69
2022/09/22 15:11:15;;;;;;;4.67;3.20;;;;;;;;;;1748029;80;21067;-69
2022/09/22 15:13:44;;;;;;;4.75;3.17;;;;;;;;;;1759674;80;21499;-69
2022/09/22 15:16:30;;;;;;;4.42;3.00;;;;;;;;;;1769144;78;20953;-68
2022/09/22 15:20:50;;;;;;;5.05;3.05;;;;;;;;;;1803173;79;22860;-69